createdAt,value
2022-08-25T00:02:06.669Z,22.80
2022-08-25T00:07:08.332Z,22.86
2022-08-25T00:12:09.972Z,22.85
2022-08-25T00:17:12.100Z,22.93
2022-08-25T00:22:14.183Z,22.70
2022-08-25T00:27:16.584Z,22.67
2022-08-25T00:32:18.587Z,22.70
2022-08-25T00:37:20.464Z,22.50
2022-08-25T00:42:22.605Z,22.47
2022-08-25T00:47:25.321Z,22.44
2022-08-25T00:52:36.377Z,22.46
2022-08-25T00:57:43.320Z,22.44
2022-08-25T01:02:46.309Z,22.40
2022-08-25T01:07:49.540Z,22.44
2022-08-25T01:12:56.893Z,22.42
2022-08-25T01:17:59.868Z,22.38
2022-08-25T01:23:02.283Z,22.35
2022-08-25T01:28:05.141Z,22.33
2022-08-25T01:33:10.423Z,22.34
2022-08-25T01:38:12.505Z,22.29
2022-08-25T01:43:37.220Z,22.28
2022-08-25T01:48:39.047Z,22.26
2022-08-25T01:53:40.886Z,22.25
2022-08-25T01:58:46.433Z,22.26
2022-08-25T02:03:54.503Z,22.30
2022-08-25T02:08:58.971Z,22.24
2022-08-25T02:14:01.072Z,22.21
2022-08-25T02:19:06.293Z,22.22
2022-08-25T02:24:08.697Z,22.20
2022-08-25T02:29:10.789Z,22.20
2022-08-25T02:34:12.959Z,22.23
2022-08-25T02:39:14.904Z,22.19
2022-08-25T02:44:16.521Z,22.23
2022-08-25T02:49:18.791Z,22.21
2022-08-25T02:54:20.928Z,22.19
2022-08-25T02:59:23.397Z,22.19
2022-08-25T03:04:25.112Z,22.15
2022-08-25T03:09:27.562Z,22.15
2022-08-25T03:14:30.293Z,22.13
2022-08-25T03:19:32.309Z,22.11
2022-08-25T03:24:33.995Z,22.08
2022-08-25T03:29:35.897Z,22.05
2022-08-25T03:34:37.652Z,22.05
2022-08-25T03:39:39.908Z,22.05
2022-08-25T03:44:41.557Z,22.03
2022-08-25T03:49:43.741Z,22.04
2022-08-25T03:54:45.390Z,22.02
2022-08-25T03:59:47.600Z,22.00
2022-08-25T04:04:50.263Z,21.99
2022-08-25T04:09:54.230Z,21.99
2022-08-25T04:14:56.276Z,21.99
2022-08-25T04:19:58.607Z,21.98
2022-08-25T04:25:00.288Z,22.02
2022-08-25T04:30:02.352Z,21.94
2022-08-25T04:35:05.309Z,21.95
2022-08-25T04:40:08.102Z,21.98
2022-08-25T04:45:09.865Z,21.98
2022-08-25T04:50:11.790Z,21.98
2022-08-25T04:55:13.624Z,21.96
2022-08-25T05:00:16.244Z,21.90
2022-08-25T05:05:18.225Z,21.91
2022-08-25T05:10:20.385Z,22.07
2022-08-25T05:15:44.346Z,22.33
2022-08-25T05:20:46.376Z,22.62
2022-08-25T05:25:50.974Z,22.92
2022-08-25T05:30:59.328Z,22.87
2022-08-25T05:36:01.479Z,22.54
2022-08-25T05:41:06.648Z,22.51
2022-08-25T05:46:10.066Z,22.56
2022-08-25T05:51:13.039Z,22.68
2022-08-25T05:56:15.115Z,22.89
2022-08-25T06:01:45.761Z,23.18
2022-08-25T06:06:48.967Z,23.23
2022-08-25T06:11:54.726Z,23.16
2022-08-25T06:16:56.986Z,23.05
2022-08-25T06:21:58.746Z,22.77
2022-08-25T06:27:00.475Z,23.20
2022-08-25T06:32:02.250Z,23.23
2022-08-25T06:37:04.241Z,23.29
2022-08-25T06:42:06.021Z,23.55
2022-08-25T06:47:09.687Z,23.81
2022-08-25T06:52:12.973Z,23.61
2022-08-25T06:57:15.002Z,23.58
2022-08-25T07:02:16.695Z,23.80
2022-08-25T07:07:24.222Z,23.99
2022-08-25T07:12:25.860Z,24.20
2022-08-25T07:17:27.748Z,24.40
2022-08-25T07:22:29.693Z,24.28
2022-08-25T07:27:31.333Z,24.21
2022-08-25T07:32:33.189Z,24.37
2022-08-25T07:37:48.972Z,24.48
2022-08-25T07:42:54.480Z,24.70
2022-08-25T07:48:06.368Z,25.10
2022-08-25T07:53:09.214Z,25.13
2022-08-25T07:58:12.343Z,25.27
2022-08-25T08:03:29.461Z,25.42
2022-08-25T08:08:43.369Z,25.53
2022-08-25T08:13:47.389Z,25.30
2022-08-25T08:18:53.152Z,25.49
2022-08-25T08:23:58.934Z,25.47
2022-08-25T08:29:01.774Z,25.77
2022-08-25T08:34:03.708Z,25.70
2022-08-25T08:39:05.587Z,25.78
2022-08-25T08:44:33.315Z,25.60
2022-08-25T08:50:00.774Z,25.64
2022-08-25T08:55:09.704Z,25.92
2022-08-25T09:00:11.787Z,25.74
2022-08-25T09:05:16.816Z,25.88
2022-08-25T09:10:19.657Z,26.12
2022-08-25T09:16:01.724Z,26.33
2022-08-25T09:21:04.128Z,26.63
2022-08-25T09:26:37.932Z,26.22
2022-08-25T09:31:42.460Z,26.22
2022-08-25T09:36:45.646Z,26.44
2022-08-25T09:41:59.154Z,26.52
2022-08-25T09:47:03.076Z,26.48
2022-08-25T09:52:31.893Z,26.50
2022-08-25T09:57:36.720Z,26.61
2022-08-25T10:02:38.723Z,26.81
2022-08-25T10:07:53.119Z,26.96
2022-08-25T10:12:55.148Z,27.27
2022-08-25T10:18:25.606Z,27.38
2022-08-25T10:23:28.423Z,27.57
2022-08-25T10:28:35.429Z,27.80
2022-08-25T10:33:46.326Z,27.85
2022-08-25T10:38:57.680Z,27.64
2022-08-25T10:44:45.029Z,27.45
2022-08-25T10:49:51.201Z,27.67
2022-08-25T10:55:19.928Z,27.74
2022-08-25T11:00:25.831Z,27.62
2022-08-25T11:05:42.496Z,27.35
2022-08-25T11:10:50.393Z,27.75
2022-08-25T11:16:19.553Z,28.04
2022-08-25T11:21:34.688Z,28.10
2022-08-25T11:26:41.632Z,28.40
2022-08-25T11:31:52.165Z,28.23
2022-08-25T11:37:01.104Z,28.25
2022-08-25T11:42:18.163Z,28.34
2022-08-25T11:47:45.456Z,28.36
2022-08-25T11:52:54.036Z,28.36
2022-08-25T11:58:32.741Z,28.35
2022-08-25T12:03:34.345Z,28.55
2022-08-25T12:09:05.651Z,28.59
2022-08-25T12:14:22.500Z,28.74
2022-08-25T12:19:34.242Z,29.05
2022-08-25T12:24:47.285Z,29.42
2022-08-25T12:29:53.056Z,29.59
2022-08-25T12:35:14.296Z,29.09
2022-08-25T12:40:26.322Z,28.96
2022-08-25T12:45:40.185Z,29.20
2022-08-25T12:50:47.892Z,29.24
2022-08-25T12:55:54.337Z,29.32
2022-08-25T13:01:35.839Z,29.43
2022-08-25T13:06:53.801Z,28.93
2022-08-25T13:12:12.125Z,28.77
2022-08-25T13:17:26.285Z,29.04
2022-08-25T13:22:28.006Z,28.82
2022-08-25T13:27:35.710Z,29.20
2022-08-25T13:32:39.042Z,29.57
2022-08-25T13:37:42.140Z,29.59
2022-08-25T13:42:53.034Z,29.77
2022-08-25T13:47:56.622Z,29.61
2022-08-25T13:53:03.007Z,29.73
2022-08-25T13:58:12.836Z,29.66
2022-08-25T14:03:35.878Z,29.32
2022-08-25T14:08:41.058Z,29.44
2022-08-25T14:13:45.418Z,29.65
2022-08-25T14:18:51.889Z,29.84
2022-08-25T14:23:54.761Z,29.93
2022-08-25T14:28:56.687Z,29.90
2022-08-25T14:34:04.910Z,29.89
2022-08-25T14:39:08.606Z,29.71
2022-08-25T14:44:11.306Z,29.69
2022-08-25T14:49:18.546Z,29.68
2022-08-25T14:54:27.992Z,29.50
2022-08-25T14:59:31.560Z,29.41
2022-08-25T15:09:39.728Z,29.56
2022-08-25T15:14:41.572Z,29.49
2022-08-25T15:19:44.300Z,29.43
2022-08-25T15:24:47.735Z,29.22
2022-08-25T15:29:49.879Z,29.24
2022-08-25T15:34:51.869Z,29.13
2022-08-25T15:39:53.500Z,29.10
2022-08-25T15:44:56.084Z,29.03
2022-08-25T15:50:11.713Z,29.06
2022-08-25T15:55:14.268Z,29.03
2022-08-25T16:00:17.055Z,28.88
2022-08-25T16:05:25.176Z,28.87
2022-08-25T16:10:27.430Z,28.86
2022-08-25T16:15:29.581Z,28.75
2022-08-25T16:20:33.523Z,28.74
2022-08-25T16:25:40.328Z,28.65
2022-08-25T16:30:52.719Z,28.57
2022-08-25T16:36:06.289Z,28.58
2022-08-25T16:41:18.496Z,28.52
2022-08-25T16:46:22.162Z,28.49
2022-08-25T16:51:29.785Z,28.42
2022-08-25T16:56:37.076Z,28.33
2022-08-25T17:01:41.304Z,28.22
2022-08-25T17:06:49.422Z,28.11
2022-08-25T17:11:56.840Z,28.02
2022-08-25T17:16:58.556Z,27.90
2022-08-25T17:22:00.180Z,27.80
2022-08-25T17:27:02.178Z,27.70
2022-08-25T17:32:05.178Z,27.58
2022-08-25T17:37:07.025Z,27.51
2022-08-25T17:42:09.124Z,27.41
2022-08-25T17:47:11.395Z,27.29
2022-08-25T17:52:13.192Z,27.17
2022-08-25T17:57:16.117Z,27.06
2022-08-25T18:02:18.069Z,26.94
2022-08-25T18:07:19.928Z,26.83
2022-08-25T18:12:21.768Z,26.73
2022-08-25T18:17:29.275Z,26.61
2022-08-25T18:22:31.969Z,26.50
2022-08-25T18:27:35.190Z,26.40
2022-08-25T18:32:37.375Z,26.28
2022-08-25T18:37:57.784Z,26.18
2022-08-25T18:43:07.429Z,26.07
2022-08-25T18:48:10.150Z,25.97
2022-08-25T18:53:13.196Z,25.86
2022-08-25T18:58:16.241Z,25.78
2022-08-25T19:03:20.628Z,25.70
2022-08-25T19:08:22.564Z,25.60
2022-08-25T19:13:24.273Z,25.54
2022-08-25T19:18:29.134Z,25.41
2022-08-25T19:23:32.647Z,25.28
2022-08-25T19:28:35.749Z,25.20
2022-08-25T19:33:44.749Z,25.09
2022-08-25T19:38:47.272Z,25.00
2022-08-25T19:43:56.721Z,24.91
2022-08-25T19:49:02.585Z,24.85
2022-08-25T19:54:10.839Z,24.81
2022-08-25T19:59:13.855Z,24.73
2022-08-25T20:04:16.063Z,24.67
2022-08-25T20:09:21.077Z,24.61
2022-08-25T20:14:40.353Z,24.54
2022-08-25T20:19:43.125Z,24.42
2022-08-25T20:24:51.130Z,24.25
2022-08-25T20:29:58.327Z,24.19
2022-08-25T20:35:01.342Z,24.07
2022-08-25T20:40:05.243Z,24.08
2022-08-25T20:45:08.615Z,24.05
2022-08-25T20:50:11.929Z,24.00
2022-08-25T20:55:13.833Z,23.95
2022-08-25T21:00:17.994Z,23.88
2022-08-25T21:05:20.145Z,23.83
2022-08-25T21:10:22.116Z,23.74
2022-08-25T21:15:24.161Z,23.71
2022-08-25T21:20:25.966Z,23.60
2022-08-25T21:25:27.613Z,23.51
2022-08-25T21:30:29.696Z,23.44
2022-08-25T21:35:31.637Z,23.37
2022-08-25T21:40:36.836Z,23.34
2022-08-25T21:45:46.420Z,23.23
2022-08-25T21:50:48.380Z,23.14
2022-08-25T21:55:50.415Z,23.10
2022-08-25T22:00:52.110Z,23.07
2022-08-25T22:05:55.084Z,23.03
2022-08-25T22:10:57.177Z,22.97
2022-08-25T22:15:59.091Z,22.91
2022-08-25T22:21:00.782Z,22.85
2022-08-25T22:26:09.469Z,22.72
2022-08-25T22:31:12.424Z,22.65
2022-08-25T22:36:27.124Z,22.59
2022-08-25T22:41:31.680Z,22.52
2022-08-25T22:46:35.126Z,22.48
2022-08-25T22:51:37.631Z,22.43
2022-08-25T22:56:39.723Z,22.36
2022-08-25T23:01:43.720Z,22.31
2022-08-25T23:06:46.014Z,22.26
2022-08-25T23:11:51.272Z,22.19
2022-08-25T23:16:53.431Z,22.16
2022-08-25T23:22:10.675Z,22.12
2022-08-25T23:27:17.112Z,22.11
2022-08-25T23:32:20.109Z,22.11
2022-08-25T23:37:21.806Z,22.04
2022-08-25T23:42:24.682Z,22.00
2022-08-25T23:47:26.793Z,21.95
2022-08-25T23:52:28.513Z,21.92
2022-08-25T23:57:31.979Z,21.87
